TimeHST,TemperatureF,Dew PointF,Humidity,Sea Level PressureIn,VisibilityMPH,Wind Direction,Wind SpeedMPH,Gust SpeedMPH,PrecipitationIn,Events,Conditions,WindDirDegrees,DateUTC
12:53 AM,72.0,66.9,84,29.91,10.0,ENE,3.5,-,N/A,,Clear,60,2013-11-12 10:53:00
1:53 AM,73.0,66.0,79,29.89,10.0,East,6.9,-,N/A,,Scattered Clouds,80,2013-11-12 11:53:00
2:53 AM,73.0,66.0,79,29.89,10.0,ENE,6.9,-,N/A,,Overcast,70,2013-11-12 12:53:00
3:53 AM,70.0,68.0,93,29.89,7.0,ENE,6.9,-,0.53,Rain,Heavy Rain,60,2013-11-12 13:53:00
4:53 AM,73.0,69.1,87,29.89,10.0,Variable,3.5,-,0.08,Rain,Light Rain,0,2013-11-12 14:53:00
5:53 AM,73.0,68.0,84,29.92,10.0,North,4.6,-,N/A,,Mostly Cloudy,10,2013-11-12 15:53:00
6:53 AM,71.1,66.9,87,29.94,10.0,NE,5.8,-,N/A,,Partly Cloudy,50,2013-11-12 16:53:00
7:53 AM,71.1,66.9,87,29.96,10.0,NNE,5.8,-,N/A,,Clear,20,2013-11-12 17:53:00
8:53 AM,75.0,64.9,71,29.98,10.0,NE,8.1,-,N/A,,Clear,40,2013-11-12 18:53:00
9:53 AM,79.0,64.9,62,29.96,10.0,NNE,11.5,-,N/A,,Clear,20,2013-11-12 19:53:00
10:53 AM,82.0,64.9,56,29.95,10.0,NNW,8.1,-,N/A,,Clear,340,2013-11-12 20:53:00
11:53 AM,80.1,64.0,58,29.94,10.0,NW,6.9,-,N/A,,Clear,310,2013-11-12 21:53:00
12:53 PM,80.1,64.9,60,29.91,10.0,West,6.9,-,N/A,,Clear,280,2013-11-12 22:53:00
1:53 PM,80.1,64.9,60,29.89,10.0,West,4.6,-,N/A,,Clear,270,2013-11-12 23:53:00
2:53 PM,81.0,59.0,47,29.88,10.0,WNW,5.8,-,N/A,,Clear,300,2013-11-13 00:53:00
3:53 PM,80.1,63.0,56,29.88,10.0,NW,8.1,-,N/A,,Clear,320,2013-11-13 01:53:00
4:53 PM,80.1,62.1,54,29.90,10.0,NW,8.1,-,N/A,,Clear,320,2013-11-13 02:53:00
5:53 PM,78.1,61.0,56,29.91,10.0,East,3.5,-,N/A,,Clear,90,2013-11-13 03:53:00
6:53 PM,77.0,64.9,66,29.93,10.0,ESE,3.5,-,N/A,,Scattered Clouds,110,2013-11-13 04:53:00
7:53 PM,77.0,66.0,69,29.93,10.0,ESE,10.4,-,N/A,,Mostly Cloudy,110,2013-11-13 05:53:00
8:53 PM,75.9,66.0,71,29.96,10.0,ESE,4.6,-,N/A,,Scattered Clouds,120,2013-11-13 06:53:00
9:53 PM,75.9,64.9,69,29.95,10.0,ENE,3.5,-,N/A,,Overcast,70,2013-11-13 07:53:00
10:53 PM,75.9,66.9,74,29.95,10.0,East,3.5,-,N/A,,Mostly Cloudy,80,2013-11-13 08:53:00
11:53 PM,75.0,64.0,69,29.94,10.0,NNE,5.8,-,N/A,,Mostly Cloudy,30,2013-11-13 09:53:00